sensor_id;sensor_type;location;lat;lon;timestamp;P1;durP1;ratioP1;P2;durP2;ratioP2
59442;SDS011;45247;47.466;19.004;2022-12-19T00:00:35;84.63;;;34.33;;
59442;SDS011;45247;47.466;19.004;2022-12-19T00:03:03;92.95;;;37.55;;
59442;SDS011;45247;47.466;19.004;2022-12-19T00:05:34;92.07;;;35.92;;
59442;SDS011;45247;47.466;19.004;2022-12-19T00:08:04;83.53;;;36.40;;
59442;SDS011;45247;47.466;19.004;2022-12-19T00:10:52;95.40;;;38.30;;
59442;SDS011;45247;47.466;19.004;2022-12-19T00:13:21;90.80;;;37.33;;
59442;SDS011;45247;47.466;19.004;2022-12-19T00:15:50;95.93;;;36.95;;
59442;SDS011;45247;47.466;19.004;2022-12-19T00:18:18;92.32;;;39.63;;
59442;SDS011;45247;47.466;19.004;2022-12-19T00:20:52;84.80;;;36.00;;
59442;SDS011;45247;47.466;19.004;2022-12-19T00:23:22;91.43;;;36.33;;
59442;SDS011;45247;47.466;19.004;2022-12-19T00:25:51;82.15;;;35.60;;
59442;SDS011;45247;47.466;19.004;2022-12-19T00:28:20;79.15;;;34.00;;
59442;SDS011;45247;47.466;19.004;2022-12-19T00:30:49;73.82;;;33.03;;
59442;SDS011;45247;47.466;19.004;2022-12-19T00:33:20;87.38;;;35.65;;
59442;SDS011;45247;47.466;19.004;2022-12-19T00:35:48;97.03;;;38.22;;
59442;SDS011;45247;47.466;19.004;2022-12-19T00:38:16;86.00;;;36.20;;
59442;SDS011;45247;47.466;19.004;2022-12-19T00:40:44;86.35;;;36.28;;
59442;SDS011;45247;47.466;19.004;2022-12-19T00:43:14;94.82;;;35.25;;
59442;SDS011;45247;47.466;19.004;2022-12-19T00:45:42;80.38;;;33.67;;
59442;SDS011;45247;47.466;19.004;2022-12-19T00:48:10;97.20;;;35.97;;
59442;SDS011;45247;47.466;19.004;2022-12-19T00:50:41;86.97;;;34.22;;
59442;SDS011;45247;47.466;19.004;2022-12-19T00:53:09;90.22;;;34.88;;
59442;SDS011;45247;47.466;19.004;2022-12-19T00:55:37;80.95;;;34.25;;
59442;SDS011;45247;47.466;19.004;2022-12-19T00:58:05;83.28;;;34.13;;
59442;SDS011;45247;47.466;19.004;2022-12-19T01:00:35;83.70;;;35.13;;
59442;SDS011;45247;47.466;19.004;2022-12-19T01:03:03;89.35;;;37.67;;
59442;SDS011;45247;47.466;19.004;2022-12-19T01:05:31;82.90;;;32.88;;
59442;SDS011;45247;47.466;19.004;2022-12-19T01:07:59;79.88;;;35.70;;
59442;SDS011;45247;47.466;19.004;2022-12-19T01:10:27;76.35;;;33.42;;
59442;SDS011;45247;47.466;19.004;2022-12-19T01:12:55;78.00;;;33.50;;
59442;SDS011;45247;47.466;19.004;2022-12-19T01:15:23;81.85;;;33.72;;
59442;SDS011;45247;47.466;19.004;2022-12-19T01:17:52;81.38;;;34.25;;
59442;SDS011;45247;47.466;19.004;2022-12-19T01:20:20;90.63;;;35.55;;
59442;SDS011;45247;47.466;19.004;2022-12-19T01:22:55;98.00;;;35.40;;
59442;SDS011;45247;47.466;19.004;2022-12-19T01:25:25;89.57;;;34.83;;
59442;SDS011;45247;47.466;19.004;2022-12-19T01:27:54;87.70;;;34.42;;
59442;SDS011;45247;47.466;19.004;2022-12-19T01:30:23;98.45;;;34.92;;
59442;SDS011;45247;47.466;19.004;2022-12-19T01:32:54;102.20;;;35.35;;
59442;SDS011;45247;47.466;19.004;2022-12-19T01:35:22;101.10;;;35.42;;
59442;SDS011;45247;47.466;19.004;2022-12-19T01:37:51;102.47;;;38.58;;
59442;SDS011;45247;47.466;19.004;2022-12-19T01:40:33;112.65;;;38.33;;
59442;SDS011;45247;47.466;19.004;2022-12-19T01:43:02;99.05;;;37.53;;
59442;SDS011;45247;47.466;19.004;2022-12-19T01:45:30;97.53;;;34.35;;
59442;SDS011;45247;47.466;19.004;2022-12-19T01:50:52;104.57;;;34.30;;
59442;SDS011;45247;47.466;19.004;2022-12-19T01:53:29;115.57;;;36.60;;
59442;SDS011;45247;47.466;19.004;2022-12-19T01:56:15;104.20;;;35.40;;
59442;SDS011;45247;47.466;19.004;2022-12-19T01:58:46;101.32;;;34.40;;
59442;SDS011;45247;47.466;19.004;2022-12-19T02:01:31;104.75;;;35.65;;
59442;SDS011;45247;47.466;19.004;2022-12-19T02:04:01;112.63;;;38.80;;
59442;SDS011;45247;47.466;19.004;2022-12-19T02:06:30;96.78;;;35.58;;
59442;SDS011;45247;47.466;19.004;2022-12-19T02:09:01;107.72;;;36.72;;
59442;SDS011;45247;47.466;19.004;2022-12-19T02:11:29;114.90;;;41.40;;
59442;SDS011;45247;47.466;19.004;2022-12-19T02:13:57;113.15;;;38.75;;
59442;SDS011;45247;47.466;19.004;2022-12-19T02:16:28;108.00;;;38.97;;
59442;SDS011;45247;47.466;19.004;2022-12-19T02:19:13;109.38;;;37.72;;
59442;SDS011;45247;47.466;19.004;2022-12-19T02:22:11;105.82;;;35.80;;
59442;SDS011;45247;47.466;19.004;2022-12-19T02:25:03;112.70;;;36.70;;
59442;SDS011;45247;47.466;19.004;2022-12-19T02:28:05;109.97;;;35.35;;
59442;SDS011;45247;47.466;19.004;2022-12-19T02:30:59;102.68;;;36.08;;
59442;SDS011;45247;47.466;19.004;2022-12-19T02:33:42;95.97;;;32.92;;
59442;SDS011;45247;47.466;19.004;2022-12-19T02:36:18;100.60;;;34.40;;
59442;SDS011;45247;47.466;19.004;2022-12-19T02:38:52;114.82;;;37.50;;
59442;SDS011;45247;47.466;19.004;2022-12-19T02:41:25;110.00;;;38.17;;
59442;SDS011;45247;47.466;19.004;2022-12-19T02:43:56;99.78;;;35.58;;
59442;SDS011;45247;47.466;19.004;2022-12-19T02:46:26;105.45;;;37.53;;
59442;SDS011;45247;47.466;19.004;2022-12-19T02:48:55;114.63;;;36.92;;
59442;SDS011;45247;47.466;19.004;2022-12-19T02:51:24;94.35;;;33.60;;
59442;SDS011;45247;47.466;19.004;2022-12-19T02:53:52;108.07;;;37.47;;
59442;SDS011;45247;47.466;19.004;2022-12-19T02:56:27;99.38;;;34.83;;
59442;SDS011;45247;47.466;19.004;2022-12-19T02:59:08;94.22;;;30.70;;
59442;SDS011;45247;47.466;19.004;2022-12-19T03:01:44;97.25;;;35.13;;
59442;SDS011;45247;47.466;19.004;2022-12-19T03:04:21;104.03;;;37.00;;
59442;SDS011;45247;47.466;19.004;2022-12-19T03:06:59;105.55;;;38.47;;
59442;SDS011;45247;47.466;19.004;2022-12-19T03:09:35;95.07;;;34.92;;
59442;SDS011;45247;47.466;19.004;2022-12-19T03:12:13;116.45;;;39.10;;
59442;SDS011;45247;47.466;19.004;2022-12-19T03:14:45;114.25;;;36.42;;
59442;SDS011;45247;47.466;19.004;2022-12-19T03:17:16;101.47;;;36.70;;
59442;SDS011;45247;47.466;19.004;2022-12-19T03:19:44;94.05;;;36.38;;
59442;SDS011;45247;47.466;19.004;2022-12-19T03:22:12;104.30;;;37.55;;
59442;SDS011;45247;47.466;19.004;2022-12-19T03:24:41;99.10;;;36.67;;
59442;SDS011;45247;47.466;19.004;2022-12-19T03:27:10;106.88;;;37.17;;
59442;SDS011;45247;47.466;19.004;2022-12-19T03:29:44;104.95;;;36.45;;
59442;SDS011;45247;47.466;19.004;2022-12-19T03:32:17;103.68;;;37.00;;
59442;SDS011;45247;47.466;19.004;2022-12-19T03:34:47;98.68;;;35.95;;
59442;SDS011;45247;47.466;19.004;2022-12-19T03:37:19;103.50;;;37.10;;
59442;SDS011;45247;47.466;19.004;2022-12-19T03:39:53;108.85;;;37.78;;
59442;SDS011;45247;47.466;19.004;2022-12-19T03:42:25;98.70;;;36.47;;
59442;SDS011;45247;47.466;19.004;2022-12-19T03:45:14;114.97;;;37.15;;
59442;SDS011;45247;47.466;19.004;2022-12-19T03:47:50;103.22;;;36.70;;
59442;SDS011;45247;47.466;19.004;2022-12-19T03:50:24;95.65;;;37.30;;
59442;SDS011;45247;47.466;19.004;2022-12-19T03:53:00;132.98;;;40.67;;
59442;SDS011;45247;47.466;19.004;2022-12-19T03:55:39;100.30;;;35.50;;
59442;SDS011;45247;47.466;19.004;2022-12-19T03:58:15;107.18;;;36.60;;
59442;SDS011;45247;47.466;19.004;2022-12-19T04:00:47;90.53;;;34.78;;
59442;SDS011;45247;47.466;19.004;2022-12-19T04:03:19;101.38;;;37.90;;
59442;SDS011;45247;47.466;19.004;2022-12-19T04:05:48;103.97;;;37.90;;
59442;SDS011;45247;47.466;19.004;2022-12-19T04:08:19;107.10;;;37.55;;
59442;SDS011;45247;47.466;19.004;2022-12-19T04:10:50;109.72;;;38.10;;
59442;SDS011;45247;47.466;19.004;2022-12-19T04:13:22;99.55;;;36.15;;
59442;SDS011;45247;47.466;19.004;2022-12-19T04:15:57;117.90;;;38.53;;
59442;SDS011;45247;47.466;19.004;2022-12-19T04:18:33;94.28;;;36.30;;
59442;SDS011;45247;47.466;19.004;2022-12-19T04:21:04;112.60;;;37.65;;
59442;SDS011;45247;47.466;19.004;2022-12-19T04:23:40;98.82;;;35.17;;
59442;SDS011;45247;47.466;19.004;2022-12-19T04:26:12;106.85;;;36.97;;
59442;SDS011;45247;47.466;19.004;2022-12-19T04:28:44;99.95;;;36.65;;
59442;SDS011;45247;47.466;19.004;2022-12-19T04:31:15;104.20;;;38.60;;
59442;SDS011;45247;47.466;19.004;2022-12-19T04:33:47;105.25;;;35.58;;
59442;SDS011;45247;47.466;19.004;2022-12-19T04:36:16;103.07;;;37.90;;
59442;SDS011;45247;47.466;19.004;2022-12-19T04:38:44;94.72;;;37.00;;
59442;SDS011;45247;47.466;19.004;2022-12-19T04:41:12;103.38;;;36.88;;
59442;SDS011;45247;47.466;19.004;2022-12-19T04:43:40;101.55;;;38.00;;
59442;SDS011;45247;47.466;19.004;2022-12-19T04:46:08;102.15;;;36.78;;
59442;SDS011;45247;47.466;19.004;2022-12-19T04:48:36;116.18;;;35.65;;
59442;SDS011;45247;47.466;19.004;2022-12-19T04:51:06;104.60;;;36.05;;
59442;SDS011;45247;47.466;19.004;2022-12-19T04:53:34;116.72;;;38.38;;
59442;SDS011;45247;47.466;19.004;2022-12-19T04:56:03;109.82;;;39.67;;
59442;SDS011;45247;47.466;19.004;2022-12-19T04:58:33;101.15;;;36.85;;
59442;SDS011;45247;47.466;19.004;2022-12-19T05:01:01;96.68;;;36.20;;
59442;SDS011;45247;47.466;19.004;2022-12-19T05:03:30;97.97;;;36.95;;
59442;SDS011;45247;47.466;19.004;2022-12-19T05:06:02;111.40;;;36.65;;
59442;SDS011;45247;47.466;19.004;2022-12-19T05:08:36;100.95;;;34.60;;
59442;SDS011;45247;47.466;19.004;2022-12-19T05:11:05;111.40;;;38.00;;
59442;SDS011;45247;47.466;19.004;2022-12-19T05:13:39;115.40;;;37.30;;
59442;SDS011;45247;47.466;19.004;2022-12-19T05:16:08;113.10;;;36.08;;
59442;SDS011;45247;47.466;19.004;2022-12-19T05:18:38;109.90;;;39.88;;
59442;SDS011;45247;47.466;19.004;2022-12-19T05:21:08;114.65;;;38.33;;
59442;SDS011;45247;47.466;19.004;2022-12-19T05:23:36;103.88;;;37.55;;
59442;SDS011;45247;47.466;19.004;2022-12-19T05:26:04;104.97;;;37.75;;
59442;SDS011;45247;47.466;19.004;2022-12-19T05:28:33;103.13;;;36.92;;
59442;SDS011;45247;47.466;19.004;2022-12-19T05:31:02;101.55;;;37.55;;
59442;SDS011;45247;47.466;19.004;2022-12-19T05:33:31;112.95;;;36.40;;
59442;SDS011;45247;47.466;19.004;2022-12-19T05:36:00;100.50;;;34.50;;
59442;SDS011;45247;47.466;19.004;2022-12-19T05:38:30;108.88;;;37.75;;
59442;SDS011;45247;47.466;19.004;2022-12-19T05:40:58;107.93;;;35.50;;
59442;SDS011;45247;47.466;19.004;2022-12-19T05:43:32;103.82;;;35.97;;
59442;SDS011;45247;47.466;19.004;2022-12-19T05:46:00;104.38;;;36.67;;
59442;SDS011;45247;47.466;19.004;2022-12-19T05:48:30;99.53;;;35.92;;
59442;SDS011;45247;47.466;19.004;2022-12-19T05:50:59;102.78;;;36.13;;
59442;SDS011;45247;47.466;19.004;2022-12-19T05:53:27;97.57;;;36.22;;
59442;SDS011;45247;47.466;19.004;2022-12-19T05:56:02;120.47;;;38.83;;
59442;SDS011;45247;47.466;19.004;2022-12-19T05:58:34;104.78;;;34.58;;
59442;SDS011;45247;47.466;19.004;2022-12-19T06:01:02;89.88;;;34.50;;
59442;SDS011;45247;47.466;19.004;2022-12-19T06:03:31;110.57;;;36.15;;
59442;SDS011;45247;47.466;19.004;2022-12-19T06:06:01;109.38;;;38.78;;
59442;SDS011;45247;47.466;19.004;2022-12-19T06:08:30;114.22;;;38.00;;
59442;SDS011;45247;47.466;19.004;2022-12-19T06:10:58;105.10;;;37.83;;
59442;SDS011;45247;47.466;19.004;2022-12-19T06:13:28;122.32;;;40.67;;
59442;SDS011;45247;47.466;19.004;2022-12-19T06:15:57;114.65;;;38.53;;
59442;SDS011;45247;47.466;19.004;2022-12-19T06:18:25;124.25;;;38.95;;
59442;SDS011;45247;47.466;19.004;2022-12-19T06:20:56;113.30;;;40.47;;
59442;SDS011;45247;47.466;19.004;2022-12-19T06:23:25;107.05;;;36.03;;
59442;SDS011;45247;47.466;19.004;2022-12-19T06:25:54;111.10;;;38.75;;
59442;SDS011;45247;47.466;19.004;2022-12-19T06:28:24;100.53;;;37.70;;
59442;SDS011;45247;47.466;19.004;2022-12-19T06:30:55;128.05;;;41.20;;
59442;SDS011;45247;47.466;19.004;2022-12-19T06:33:25;123.28;;;40.28;;
59442;SDS011;45247;47.466;19.004;2022-12-19T06:35:56;130.88;;;44.00;;
59442;SDS011;45247;47.466;19.004;2022-12-19T06:38:25;119.10;;;40.08;;
59442;SDS011;45247;47.466;19.004;2022-12-19T06:40:54;103.25;;;38.55;;
59442;SDS011;45247;47.466;19.004;2022-12-19T06:43:40;115.68;;;39.30;;
59442;SDS011;45247;47.466;19.004;2022-12-19T06:46:10;109.45;;;39.08;;
59442;SDS011;45247;47.466;19.004;2022-12-19T06:48:38;108.95;;;39.95;;
59442;SDS011;45247;47.466;19.004;2022-12-19T06:51:06;130.60;;;37.83;;
59442;SDS011;45247;47.466;19.004;2022-12-19T06:53:34;124.82;;;41.58;;
59442;SDS011;45247;47.466;19.004;2022-12-19T06:56:03;118.00;;;39.85;;
59442;SDS011;45247;47.466;19.004;2022-12-19T06:58:32;123.43;;;41.15;;
59442;SDS011;45247;47.466;19.004;2022-12-19T07:01:00;114.30;;;39.63;;
59442;SDS011;45247;47.466;19.004;2022-12-19T07:03:31;118.90;;;41.08;;
59442;SDS011;45247;47.466;19.004;2022-12-19T07:06:03;121.80;;;38.70;;
59442;SDS011;45247;47.466;19.004;2022-12-19T07:08:32;118.53;;;37.08;;
59442;SDS011;45247;47.466;19.004;2022-12-19T07:11:01;100.50;;;35.83;;
59442;SDS011;45247;47.466;19.004;2022-12-19T07:13:29;105.80;;;37.30;;
59442;SDS011;45247;47.466;19.004;2022-12-19T07:15:57;113.03;;;38.50;;
59442;SDS011;45247;47.466;19.004;2022-12-19T07:18:31;119.18;;;38.50;;
59442;SDS011;45247;47.466;19.004;2022-12-19T07:21:02;107.07;;;35.58;;
59442;SDS011;45247;47.466;19.004;2022-12-19T07:23:31;107.40;;;36.75;;
59442;SDS011;45247;47.466;19.004;2022-12-19T07:26:01;105.47;;;36.28;;
59442;SDS011;45247;47.466;19.004;2022-12-19T07:28:30;99.00;;;36.83;;
59442;SDS011;45247;47.466;19.004;2022-12-19T07:31:00;123.25;;;36.60;;
59442;SDS011;45247;47.466;19.004;2022-12-19T07:33:29;107.75;;;35.53;;
59442;SDS011;45247;47.466;19.004;2022-12-19T07:35:57;99.53;;;33.65;;
59442;SDS011;45247;47.466;19.004;2022-12-19T07:38:25;96.20;;;35.17;;
59442;SDS011;45247;47.466;19.004;2022-12-19T07:40:54;91.03;;;34.80;;
59442;SDS011;45247;47.466;19.004;2022-12-19T07:43:22;110.28;;;36.28;;
59442;SDS011;45247;47.466;19.004;2022-12-19T07:45:52;85.97;;;32.78;;
59442;SDS011;45247;47.466;19.004;2022-12-19T07:48:21;57.35;;;22.38;;
59442;SDS011;45247;47.466;19.004;2022-12-19T07:50:51;91.50;;;32.10;;
59442;SDS011;45247;47.466;19.004;2022-12-19T07:53:19;75.00;;;28.70;;
59442;SDS011;45247;47.466;19.004;2022-12-19T07:55:51;52.15;;;20.42;;
59442;SDS011;45247;47.466;19.004;2022-12-19T07:58:19;52.17;;;24.17;;
59442;SDS011;45247;47.466;19.004;2022-12-19T08:00:52;70.22;;;25.10;;
59442;SDS011;45247;47.466;19.004;2022-12-19T08:03:21;57.00;;;19.77;;
59442;SDS011;45247;47.466;19.004;2022-12-19T08:05:49;59.35;;;21.70;;
59442;SDS011;45247;47.466;19.004;2022-12-19T08:08:19;61.22;;;22.75;;
59442;SDS011;45247;47.466;19.004;2022-12-19T08:10:47;64.07;;;22.45;;
59442;SDS011;45247;47.466;19.004;2022-12-19T08:13:15;53.97;;;23.58;;
59442;SDS011;45247;47.466;19.004;2022-12-19T08:15:43;62.78;;;25.83;;
59442;SDS011;45247;47.466;19.004;2022-12-19T08:18:12;69.88;;;27.75;;
59442;SDS011;45247;47.466;19.004;2022-12-19T08:20:42;71.03;;;27.50;;
59442;SDS011;45247;47.466;19.004;2022-12-19T08:23:13;64.38;;;24.88;;
59442;SDS011;45247;47.466;19.004;2022-12-19T08:25:41;69.97;;;27.17;;
59442;SDS011;45247;47.466;19.004;2022-12-19T08:28:09;80.38;;;26.92;;
59442;SDS011;45247;47.466;19.004;2022-12-19T08:30:37;72.82;;;27.65;;
59442;SDS011;45247;47.466;19.004;2022-12-19T08:33:05;76.55;;;29.52;;
59442;SDS011;45247;47.466;19.004;2022-12-19T08:35:34;85.78;;;30.08;;
59442;SDS011;45247;47.466;19.004;2022-12-19T08:38:03;67.15;;;25.65;;
59442;SDS011;45247;47.466;19.004;2022-12-19T08:40:33;89.90;;;31.02;;
59442;SDS011;45247;47.466;19.004;2022-12-19T08:43:01;88.07;;;30.65;;
59442;SDS011;45247;47.466;19.004;2022-12-19T08:45:29;72.43;;;29.15;;
59442;SDS011;45247;47.466;19.004;2022-12-19T08:47:57;68.68;;;27.58;;
59442;SDS011;45247;47.466;19.004;2022-12-19T08:50:25;78.78;;;28.25;;
59442;SDS011;45247;47.466;19.004;2022-12-19T08:52:54;61.70;;;25.13;;
59442;SDS011;45247;47.466;19.004;2022-12-19T08:55:22;58.92;;;23.23;;
59442;SDS011;45247;47.466;19.004;2022-12-19T08:57:54;58.15;;;24.05;;
59442;SDS011;45247;47.466;19.004;2022-12-19T09:00:22;50.80;;;20.35;;
59442;SDS011;45247;47.466;19.004;2022-12-19T09:02:51;49.45;;;19.08;;
59442;SDS011;45247;47.466;19.004;2022-12-19T09:05:20;40.92;;;17.17;;
59442;SDS011;45247;47.466;19.004;2022-12-19T09:08:08;44.97;;;19.77;;
59442;SDS011;45247;47.466;19.004;2022-12-19T09:10:36;48.53;;;20.45;;
59442;SDS011;45247;47.466;19.004;2022-12-19T09:13:06;46.28;;;19.90;;
59442;SDS011;45247;47.466;19.004;2022-12-19T09:15:34;45.35;;;18.70;;
59442;SDS011;45247;47.466;19.004;2022-12-19T09:18:03;55.22;;;21.50;;
59442;SDS011;45247;47.466;19.004;2022-12-19T09:20:31;47.55;;;20.20;;
59442;SDS011;45247;47.466;19.004;2022-12-19T09:22:59;55.25;;;19.73;;
59442;SDS011;45247;47.466;19.004;2022-12-19T09:25:28;49.35;;;20.08;;
59442;SDS011;45247;47.466;19.004;2022-12-19T09:27:56;53.35;;;18.40;;
59442;SDS011;45247;47.466;19.004;2022-12-19T09:30:45;46.22;;;18.73;;
59442;SDS011;45247;47.466;19.004;2022-12-19T09:33:22;46.70;;;17.23;;
59442;SDS011;45247;47.466;19.004;2022-12-19T09:35:50;52.17;;;20.00;;
59442;SDS011;45247;47.466;19.004;2022-12-19T09:38:22;49.65;;;17.98;;
59442;SDS011;45247;47.466;19.004;2022-12-19T09:40:56;54.67;;;20.38;;
59442;SDS011;45247;47.466;19.004;2022-12-19T09:43:34;54.72;;;20.02;;
59442;SDS011;45247;47.466;19.004;2022-12-19T09:46:16;55.60;;;21.27;;
59442;SDS011;45247;47.466;19.004;2022-12-19T09:48:46;55.83;;;21.00;;
59442;SDS011;45247;47.466;19.004;2022-12-19T09:51:24;51.30;;;21.10;;
59442;SDS011;45247;47.466;19.004;2022-12-19T09:54:03;55.05;;;21.65;;
59442;SDS011;45247;47.466;19.004;2022-12-19T09:56:36;45.97;;;19.25;;
59442;SDS011;45247;47.466;19.004;2022-12-19T09:59:13;40.25;;;17.50;;
59442;SDS011;45247;47.466;19.004;2022-12-19T10:01:54;43.17;;;19.60;;
59442;SDS011;45247;47.466;19.004;2022-12-19T10:04:26;53.30;;;20.77;;
59442;SDS011;45247;47.466;19.004;2022-12-19T10:06:59;48.17;;;19.77;;
59442;SDS011;45247;47.466;19.004;2022-12-19T10:09:48;44.90;;;19.30;;
59442;SDS011;45247;47.466;19.004;2022-12-19T10:12:41;46.22;;;19.50;;
59442;SDS011;45247;47.466;19.004;2022-12-19T10:15:27;49.72;;;17.83;;
59442;SDS011;45247;47.466;19.004;2022-12-19T10:18:10;35.45;;;17.05;;
59442;SDS011;45247;47.466;19.004;2022-12-19T10:20:58;39.83;;;16.35;;
59442;SDS011;45247;47.466;19.004;2022-12-19T10:23:38;53.38;;;20.50;;
59442;SDS011;45247;47.466;19.004;2022-12-19T10:26:22;57.55;;;21.33;;
59442;SDS011;45247;47.466;19.004;2022-12-19T10:29:03;40.25;;;18.33;;
59442;SDS011;45247;47.466;19.004;2022-12-19T10:31:44;55.15;;;20.80;;
59442;SDS011;45247;47.466;19.004;2022-12-19T10:34:22;53.30;;;21.58;;
59442;SDS011;45247;47.466;19.004;2022-12-19T10:36:55;54.50;;;22.33;;
59442;SDS011;45247;47.466;19.004;2022-12-19T10:39:49;48.00;;;20.38;;
59442;SDS011;45247;47.466;19.004;2022-12-19T10:42:25;45.50;;;20.45;;
59442;SDS011;45247;47.466;19.004;2022-12-19T10:45:10;41.75;;;18.98;;
59442;SDS011;45247;47.466;19.004;2022-12-19T10:47:48;45.40;;;20.73;;
59442;SDS011;45247;47.466;19.004;2022-12-19T10:50:23;52.60;;;20.08;;
59442;SDS011;45247;47.466;19.004;2022-12-19T10:52:53;53.83;;;20.15;;
59442;SDS011;45247;47.466;19.004;2022-12-19T10:55:30;48.53;;;21.40;;
59442;SDS011;45247;47.466;19.004;2022-12-19T10:58:11;47.45;;;20.33;;
59442;SDS011;45247;47.466;19.004;2022-12-19T11:00:45;46.97;;;18.65;;
59442;SDS011;45247;47.466;19.004;2022-12-19T11:03:24;52.50;;;21.75;;
59442;SDS011;45247;47.466;19.004;2022-12-19T11:05:54;50.33;;;20.83;;
59442;SDS011;45247;47.466;19.004;2022-12-19T11:08:24;45.35;;;18.48;;
59442;SDS011;45247;47.466;19.004;2022-12-19T11:10:54;45.25;;;19.48;;
59442;SDS011;45247;47.466;19.004;2022-12-19T11:13:56;47.65;;;19.58;;
59442;SDS011;45247;47.466;19.004;2022-12-19T11:16:44;34.85;;;15.90;;
59442;SDS011;45247;47.466;19.004;2022-12-19T11:19:33;42.17;;;18.27;;
59442;SDS011;45247;47.466;19.004;2022-12-19T11:22:25;46.22;;;19.50;;
59442;SDS011;45247;47.466;19.004;2022-12-19T11:25:17;54.25;;;22.20;;
59442;SDS011;45247;47.466;19.004;2022-12-19T11:28:11;49.08;;;20.08;;
59442;SDS011;45247;47.466;19.004;2022-12-19T11:31:05;42.60;;;17.88;;
59442;SDS011;45247;47.466;19.004;2022-12-19T11:34:01;45.03;;;19.73;;
59442;SDS011;45247;47.466;19.004;2022-12-19T11:36:35;52.25;;;20.17;;
59442;SDS011;45247;47.466;19.004;2022-12-19T11:39:11;51.97;;;20.23;;
59442;SDS011;45247;47.466;19.004;2022-12-19T11:41:47;46.30;;;19.52;;
59442;SDS011;45247;47.466;19.004;2022-12-19T11:44:24;48.88;;;20.50;;
59442;SDS011;45247;47.466;19.004;2022-12-19T11:46:58;52.22;;;20.48;;
59442;SDS011;45247;47.466;19.004;2022-12-19T11:49:40;44.60;;;19.27;;
59442;SDS011;45247;47.466;19.004;2022-12-19T11:52:16;49.63;;;21.58;;
59442;SDS011;45247;47.466;19.004;2022-12-19T11:55:19;51.72;;;20.75;;
59442;SDS011;45247;47.466;19.004;2022-12-19T11:57:51;43.03;;;18.23;;
59442;SDS011;45247;47.466;19.004;2022-12-19T12:00:22;55.58;;;21.85;;
59442;SDS011;45247;47.466;19.004;2022-12-19T12:06:00;52.50;;;22.00;;
59442;SDS011;45247;47.466;19.004;2022-12-19T12:08:50;44.10;;;20.42;;
59442;SDS011;45247;47.466;19.004;2022-12-19T12:11:48;45.17;;;18.63;;
59442;SDS011;45247;47.466;19.004;2022-12-19T12:14:44;53.25;;;20.27;;
59442;SDS011;45247;47.466;19.004;2022-12-19T12:17:47;52.80;;;21.63;;
59442;SDS011;45247;47.466;19.004;2022-12-19T12:20:42;49.72;;;21.75;;
59442;SDS011;45247;47.466;19.004;2022-12-19T12:23:43;40.10;;;17.63;;
59442;SDS011;45247;47.466;19.004;2022-12-19T12:26:52;50.00;;;20.80;;
59442;SDS011;45247;47.466;19.004;2022-12-19T12:29:50;49.13;;;18.33;;
59442;SDS011;45247;47.466;19.004;2022-12-19T12:32:48;57.08;;;22.23;;
59442;SDS011;45247;47.466;19.004;2022-12-19T12:35:44;56.42;;;21.20;;
59442;SDS011;45247;47.466;19.004;2022-12-19T12:38:39;46.15;;;21.27;;
59442;SDS011;45247;47.466;19.004;2022-12-19T12:41:27;50.88;;;21.25;;
59442;SDS011;45247;47.466;19.004;2022-12-19T12:44:26;48.90;;;20.50;;
59442;SDS011;45247;47.466;19.004;2022-12-19T12:47:00;40.65;;;18.45;;
59442;SDS011;45247;47.466;19.004;2022-12-19T12:49:36;51.53;;;20.63;;
59442;SDS011;45247;47.466;19.004;2022-12-19T12:52:10;54.63;;;21.17;;
59442;SDS011;45247;47.466;19.004;2022-12-19T12:54:46;52.40;;;19.35;;
59442;SDS011;45247;47.466;19.004;2022-12-19T12:57:16;46.78;;;19.10;;
59442;SDS011;45247;47.466;19.004;2022-12-19T12:59:49;53.42;;;20.92;;
59442;SDS011;45247;47.466;19.004;2022-12-19T13:02:43;52.55;;;22.80;;
59442;SDS011;45247;47.466;19.004;2022-12-19T13:05:19;48.90;;;20.57;;
59442;SDS011;45247;47.466;19.004;2022-12-19T13:07:56;46.13;;;19.10;;
59442;SDS011;45247;47.466;19.004;2022-12-19T13:10:25;54.42;;;21.95;;
59442;SDS011;45247;47.466;19.004;2022-12-19T13:12:56;48.10;;;19.48;;
59442;SDS011;45247;47.466;19.004;2022-12-19T13:15:35;49.67;;;22.08;;
59442;SDS011;45247;47.466;19.004;2022-12-19T13:18:11;53.25;;;22.67;;
59442;SDS011;45247;47.466;19.004;2022-12-19T13:20:58;53.65;;;22.00;;
59442;SDS011;45247;47.466;19.004;2022-12-19T13:23:32;43.85;;;18.50;;
59442;SDS011;45247;47.466;19.004;2022-12-19T13:26:18;45.10;;;19.30;;
59442;SDS011;45247;47.466;19.004;2022-12-19T13:28:48;43.55;;;19.02;;
59442;SDS011;45247;47.466;19.004;2022-12-19T13:31:19;50.45;;;21.15;;
59442;SDS011;45247;47.466;19.004;2022-12-19T13:36:49;51.92;;;23.58;;
59442;SDS011;45247;47.466;19.004;2022-12-19T13:39:40;53.28;;;20.98;;
59442;SDS011;45247;47.466;19.004;2022-12-19T13:42:34;53.65;;;21.15;;
59442;SDS011;45247;47.466;19.004;2022-12-19T13:45:35;50.83;;;20.33;;
59442;SDS011;45247;47.466;19.004;2022-12-19T13:48:10;47.30;;;22.13;;
59442;SDS011;45247;47.466;19.004;2022-12-19T13:50:44;47.55;;;19.77;;
59442;SDS011;45247;47.466;19.004;2022-12-19T13:53:15;58.13;;;21.80;;
59442;SDS011;45247;47.466;19.004;2022-12-19T13:55:44;54.58;;;22.48;;
59442;SDS011;45247;47.466;19.004;2022-12-19T13:58:19;55.20;;;21.33;;
59442;SDS011;45247;47.466;19.004;2022-12-19T14:00:55;55.88;;;21.30;;
59442;SDS011;45247;47.466;19.004;2022-12-19T14:03:30;45.38;;;20.85;;
59442;SDS011;45247;47.466;19.004;2022-12-19T14:06:02;49.25;;;19.75;;
59442;SDS011;45247;47.466;19.004;2022-12-19T14:08:44;44.13;;;17.42;;
59442;SDS011;45247;47.466;19.004;2022-12-19T14:11:34;48.95;;;21.73;;
59442;SDS011;45247;47.466;19.004;2022-12-19T14:14:28;43.00;;;19.27;;
59442;SDS011;45247;47.466;19.004;2022-12-19T14:17:28;42.83;;;18.85;;
59442;SDS011;45247;47.466;19.004;2022-12-19T14:19:57;48.53;;;22.17;;
59442;SDS011;45247;47.466;19.004;2022-12-19T14:22:45;46.20;;;19.15;;
59442;SDS011;45247;47.466;19.004;2022-12-19T14:25:14;55.22;;;21.55;;
59442;SDS011;45247;47.466;19.004;2022-12-19T14:28:02;51.83;;;20.48;;
59442;SDS011;45247;47.466;19.004;2022-12-19T14:30:54;49.95;;;20.45;;
59442;SDS011;45247;47.466;19.004;2022-12-19T14:33:28;49.92;;;20.58;;
59442;SDS011;45247;47.466;19.004;2022-12-19T14:36:21;45.53;;;19.93;;
59442;SDS011;45247;47.466;19.004;2022-12-19T14:38:52;41.92;;;19.35;;
59442;SDS011;45247;47.466;19.004;2022-12-19T14:41:42;46.72;;;20.20;;
59442;SDS011;45247;47.466;19.004;2022-12-19T14:44:43;47.53;;;18.40;;
59442;SDS011;45247;47.466;19.004;2022-12-19T14:47:33;46.83;;;20.02;;
59442;SDS011;45247;47.466;19.004;2022-12-19T14:50:27;53.03;;;20.38;;
59442;SDS011;45247;47.466;19.004;2022-12-19T14:53:36;46.10;;;20.05;;
59442;SDS011;45247;47.466;19.004;2022-12-19T14:56:25;56.20;;;21.73;;